Time;durP1;ratioP1;P1;durP2;ratioP2;P2;SDS_P1;SDS_P2;PMS_P1;PMS_P2;Temp;Humidity;BMP_temperature;BMP_pressure;BME280_temperature;BME280_humidity;BME280_pressure;Samples;Min_cycle;Max_cycle;Signal;HPM_P1;HPM_P2
2023/09/10 00:01:32;;;;;;;5.80;3.80;;;22.90;99.90;;;;;;5051711;28;20098;-40
2023/09/10 00:03:58;;;;;;;4.78;3.55;;;22.90;99.90;;;;;;5052786;28;20037;-45
2023/09/10 00:06:23;;;;;;;4.65;3.85;;;22.90;99.90;;;;;;5052956;28;20080;-42
2023/09/10 00:08:49;;;;;;;5.50;4.05;;;22.90;99.90;;;;;;5052906;28;20395;-42
2023/09/10 00:11:15;;;;;;;4.97;3.97;;;22.90;99.90;;;;;;5052794;28;20470;-42
2023/09/10 00:13:40;;;;;;;5.13;3.42;;;22.90;99.90;;;;;;5052901;28;20109;-40
2023/09/10 00:16:06;;;;;;;5.47;3.75;;;22.90;99.90;;;;;;5052718;28;20474;-40
2023/09/10 00:18:32;;;;;;;6.32;3.75;;;22.90;99.90;;;;;;5052585;28;20025;-42
2023/09/10 00:20:58;;;;;;;5.15;3.85;;;22.90;99.90;;;;;;5052829;28;20021;-42
2023/09/10 00:23:23;;;;;;;6.30;4.30;;;22.90;99.90;;;;;;5052654;28;20028;-42
2023/09/10 00:25:49;;;;;;;4.35;3.90;;;22.90;99.90;;;;;;5052560;28;20108;-40
2023/09/10 00:28:15;;;;;;;6.32;3.85;;;22.90;99.90;;;;;;5052601;28;20029;-41
2023/09/10 00:30:40;;;;;;;4.72;3.55;;;22.90;99.90;;;;;;5052221;28;20050;-44
2023/09/10 00:33:06;;;;;;;5.35;3.97;;;22.90;99.90;;;;;;5052381;28;20035;-40
2023/09/10 00:35:32;;;;;;;5.15;3.70;;;22.90;99.90;;;;;;5052266;28;20032;-42
2023/09/10 00:37:58;;;;;;;7.07;3.75;;;22.90;99.90;;;;;;5052531;28;20139;-41
2023/09/10 00:40:23;;;;;;;6.15;4.00;;;22.90;99.90;;;;;;5052162;28;20036;-41
2023/09/10 00:42:49;;;;;;;5.60;4.15;;;22.80;99.90;;;;;;5052171;28;20029;-42
2023/09/10 00:45:15;;;;;;;6.85;3.60;;;22.90;99.90;;;;;;5052277;28;20075;-42
2023/09/10 00:47:45;;;;;;;4.43;3.88;;;22.80;99.90;;;;;;5052230;28;20398;-42
2023/09/10 00:50:13;;;;;;;5.45;3.83;;;22.90;99.90;;;;;;5051733;28;20024;-40
2023/09/10 00:52:46;;;;;;;6.70;4.00;;;22.90;99.90;;;;;;5052084;28;20037;-39
2023/09/10 00:55:13;;;;;;;6.83;4.03;;;22.80;99.90;;;;;;5052011;28;20099;-42
2023/09/10 00:57:39;;;;;;;5.90;3.97;;;22.80;99.90;;;;;;5051912;28;20029;-43
2023/09/10 01:00:08;;;;;;;7.45;4.30;;;22.90;99.90;;;;;;5051741;28;20434;-41
2023/09/10 01:02:34;;;;;;;5.38;4.15;;;22.80;99.90;;;;;;5051766;28;20028;-40
2023/09/10 01:05:00;;;;;;;4.93;3.78;;;22.80;99.90;;;;;;5051738;28;20021;-45
2023/09/10 01:07:26;;;;;;;6.65;3.67;;;22.80;99.90;;;;;;5051841;28;20029;-42
2023/09/10 01:09:52;;;;;;;4.20;3.80;;;22.80;99.90;;;;;;5051530;28;20018;-45
2023/09/10 01:12:25;;;;;;;4.45;4.03;;;22.80;99.90;;;;;;5051695;28;20037;-41
2023/09/10 01:15:03;;;;;;;5.63;3.45;;;22.80;99.90;;;;;;5051547;28;20048;-43
2023/09/10 01:17:41;;;;;;;5.18;3.92;;;22.80;99.90;;;;;;5051680;28;20031;-44
2023/09/10 01:20:28;;;;;;;4.70;4.07;;;22.80;99.90;;;;;;5051333;28;20036;-42
2023/09/10 01:23:04;;;;;;;6.40;4.38;;;22.80;99.90;;;;;;5051486;28;20028;-45
2023/09/10 01:25:31;;;;;;;5.00;3.47;;;22.80;99.90;;;;;;5051299;28;20013;-41
2023/09/10 01:27:57;;;;;;;4.70;3.55;;;22.80;99.90;;;;;;5050204;28;20040;-40
2023/09/10 01:30:23;;;;;;;5.10;3.60;;;22.80;99.90;;;;;;5051217;28;20028;-41
2023/09/10 01:32:52;;;;;;;4.10;3.60;;;22.80;99.90;;;;;;5051388;28;20095;-44
2023/09/10 01:35:47;;;;;;;6.65;3.63;;;22.80;99.90;;;;;;5050105;28;20043;-41
2023/09/10 01:38:20;;;;;;;6.25;4.15;;;22.80;99.90;;;;;;5050702;28;20433;-43
2023/09/10 01:41:09;;;;;;;4.53;3.65;;;22.80;99.90;;;;;;5051203;28;20423;-43
2023/09/10 01:43:35;;;;;;;5.60;3.72;;;22.80;99.90;;;;;;5051717;28;20024;-48
2023/09/10 01:46:03;;;;;;;6.10;4.00;;;22.80;99.90;;;;;;5051101;28;20112;-42
2023/09/10 01:48:29;;;;;;;6.30;4.10;;;22.80;99.90;;;;;;5051191;28;20367;-44
2023/09/10 01:50:55;;;;;;;7.18;3.83;;;22.80;99.90;;;;;;5051037;28;20021;-41
2023/09/10 01:53:20;;;;;;;5.60;4.15;;;22.80;99.90;;;;;;5051241;28;20501;-41
2023/09/10 01:55:46;;;;;;;4.68;3.83;;;22.80;99.90;;;;;;5051075;28;20079;-43
2023/09/10 01:58:13;;;;;;;5.20;3.95;;;22.80;99.90;;;;;;5051198;28;20029;-41
2023/09/10 02:00:39;;;;;;;6.20;3.60;;;22.80;99.90;;;;;;5050838;28;20016;-42
2023/09/10 02:03:05;;;;;;;4.55;3.72;;;22.80;99.90;;;;;;5055186;28;20074;-41
2023/09/10 02:05:30;;;;;;;5.72;3.78;;;22.80;99.90;;;;;;5055361;28;20017;-45
2023/09/10 02:07:56;;;;;;;4.75;3.50;;;22.80;99.90;;;;;;5055250;28;20386;-43
2023/09/10 02:10:22;;;;;;;4.88;3.72;;;22.70;99.90;;;;;;5054907;28;20483;-43
2023/09/10 02:12:48;;;;;;;4.40;3.58;;;22.70;99.90;;;;;;5055043;28;20059;-43
2023/09/10 02:15:14;;;;;;;4.28;3.85;;;22.70;99.90;;;;;;5054872;28;20025;-41
2023/09/10 02:17:39;;;;;;;5.68;3.83;;;22.70;99.90;;;;;;5055215;28;20083;-40
2023/09/10 02:20:09;;;;;;;5.13;3.80;;;22.70;99.90;;;;;;5054625;28;20033;-42
2023/09/10 02:22:36;;;;;;;11.85;4.30;;;22.80;99.90;;;;;;5054893;28;20108;-42
2023/09/10 02:25:03;;;;;;;4.68;4.13;;;22.70;99.90;;;;;;5054777;28;20013;-43
2023/09/10 02:27:30;;;;;;;6.20;4.30;;;22.70;99.90;;;;;;5053804;28;20037;-45
2023/09/10 02:29:56;;;;;;;6.50;3.88;;;22.70;99.90;;;;;;5054464;28;20371;-41
2023/09/10 02:32:22;;;;;;;4.25;3.85;;;22.70;99.90;;;;;;5054858;28;20047;-41
2023/09/10 02:34:48;;;;;;;5.28;3.83;;;22.70;99.90;;;;;;5054581;28;20425;-41
2023/09/10 02:37:14;;;;;;;6.07;4.20;;;22.70;99.90;;;;;;5054651;28;20025;-43
2023/09/10 02:39:40;;;;;;;5.60;3.72;;;22.70;99.90;;;;;;5054358;28;20068;-44
2023/09/10 02:42:05;;;;;;;4.15;3.70;;;22.70;99.90;;;;;;5054499;28;20296;-42
2023/09/10 02:44:31;;;;;;;6.47;3.80;;;22.70;99.90;;;;;;5054251;28;20064;-42
2023/09/10 02:46:57;;;;;;;5.63;4.07;;;22.70;99.90;;;;;;5054497;28;20017;-41
2023/09/10 02:49:24;;;;;;;4.75;3.97;;;22.70;99.90;;;;;;5054239;28;20024;-48
2023/09/10 02:51:50;;;;;;;3.78;3.47;;;22.70;99.90;;;;;;5054459;28;20056;-43
2023/09/10 02:54:16;;;;;;;7.22;3.88;;;22.70;99.90;;;;;;5054296;28;20079;-46
2023/09/10 02:56:41;;;;;;;6.55;3.63;;;22.70;99.90;;;;;;5054465;28;20036;-46
2023/09/10 02:59:07;;;;;;;5.10;3.80;;;22.70;99.90;;;;;;5053926;28;20037;-41
2023/09/10 03:01:33;;;;;;;6.20;3.92;;;22.70;99.90;;;;;;5054168;28;20521;-42
2023/09/10 03:03:59;;;;;;;4.93;4.22;;;22.60;99.90;;;;;;5054040;28;20025;-44
2023/09/10 03:06:24;;;;;;;8.00;4.35;;;22.70;99.90;;;;;;5054176;28;20378;-42
2023/09/10 03:08:50;;;;;;;4.80;3.58;;;22.70;99.90;;;;;;5053925;28;20021;-45
2023/09/10 03:11:15;;;;;;;4.80;3.92;;;22.70;99.90;;;;;;5054076;28;20429;-42
2023/09/10 03:13:41;;;;;;;7.90;4.05;;;22.70;99.90;;;;;;5053827;28;20017;-45
2023/09/10 03:16:07;;;;;;;5.70;4.15;;;22.70;99.90;;;;;;5053889;28;20025;-43
2023/09/10 03:18:33;;;;;;;6.20;4.18;;;22.70;99.90;;;;;;5053786;28;20040;-44
2023/09/10 03:21:02;;;;;;;5.00;4.07;;;22.70;99.90;;;;;;5053668;28;20021;-42
2023/09/10 03:23:27;;;;;;;4.45;3.80;;;22.70;99.90;;;;;;5053669;28;20051;-46
2023/09/10 03:25:53;;;;;;;5.38;3.75;;;22.60;99.90;;;;;;5053675;28;20025;-44
2023/09/10 03:28:18;;;;;;;8.10;3.80;;;22.60;99.90;;;;;;5053566;28;20052;-41
2023/09/10 03:30:44;;;;;;;4.63;4.15;;;22.60;99.90;;;;;;5053512;28;20025;-42
2023/09/10 03:33:09;;;;;;;4.55;3.90;;;22.60;99.90;;;;;;5053691;28;20074;-41
2023/09/10 03:35:35;;;;;;;4.93;3.78;;;22.70;99.90;;;;;;5053506;28;20501;-42
2023/09/10 03:38:01;;;;;;;5.72;3.95;;;22.60;99.90;;;;;;5053598;28;20025;-41
2023/09/10 03:40:26;;;;;;;7.00;3.70;;;22.70;99.90;;;;;;5053319;28;20104;-41
2023/09/10 03:42:52;;;;;;;7.72;4.15;;;22.60;99.90;;;;;;5053194;28;20028;-42
2023/09/10 03:45:18;;;;;;;5.05;3.83;;;22.60;99.90;;;;;;5053498;28;20025;-41
2023/09/10 03:47:43;;;;;;;5.03;3.95;;;22.70;99.90;;;;;;5053889;28;20411;-41
2023/09/10 03:50:11;;;;;;;8.10;3.83;;;22.60;99.90;;;;;;5053104;28;20029;-37
2023/09/10 03:52:36;;;;;;;6.65;3.97;;;22.60;99.90;;;;;;5053249;28;20360;-37
2023/09/10 03:55:02;;;;;;;4.45;3.95;;;22.60;99.90;;;;;;5053107;28;20158;-38
2023/09/10 03:57:27;;;;;;;5.80;3.92;;;22.60;99.90;;;;;;5053135;28;20078;-39
2023/09/10 03:59:53;;;;;;;6.32;3.80;;;22.60;99.90;;;;;;5052935;28;20036;-37
2023/09/10 04:02:19;;;;;;;4.68;4.00;;;22.60;99.90;;;;;;5053048;28;20031;-39
2023/09/10 04:04:46;;;;;;;4.93;4.20;;;22.60;99.90;;;;;;5053002;28;20049;-37
2023/09/10 04:07:12;;;;;;;5.13;4.45;;;22.60;99.90;;;;;;5052992;28;20105;-42
2023/09/10 04:09:38;;;;;;;4.10;3.70;;;22.60;99.90;;;;;;5053161;28;20107;-37
2023/09/10 04:12:03;;;;;;;4.75;4.22;;;22.60;99.90;;;;;;5052790;28;20025;-37
2023/09/10 04:14:30;;;;;;;6.15;4.03;;;22.60;99.90;;;;;;5052758;28;20065;-38
2023/09/10 04:16:56;;;;;;;4.97;3.88;;;22.60;99.90;;;;;;5052987;28;20032;-43
2023/09/10 04:19:22;;;;;;;5.00;4.18;;;22.60;99.90;;;;;;5052520;28;20036;-38
2023/09/10 04:21:48;;;;;;;5.00;3.75;;;22.60;99.90;;;;;;5052665;28;20422;-37
2023/09/10 04:24:14;;;;;;;5.38;4.00;;;22.60;99.90;;;;;;5052117;28;20092;-37
2023/09/10 04:26:40;;;;;;;6.53;3.85;;;22.60;99.90;;;;;;5051539;28;20029;-39
2023/09/10 04:29:05;;;;;;;6.93;3.95;;;22.60;99.90;;;;;;5052355;28;20025;-38
2023/09/10 04:31:36;;;;;;;6.47;4.20;;;22.60;99.90;;;;;;5052824;28;20513;-40
2023/09/10 04:34:02;;;;;;;6.43;4.18;;;22.50;99.90;;;;;;5052422;28;20028;-38
2023/09/10 04:36:28;;;;;;;5.40;4.18;;;22.60;99.90;;;;;;5052366;28;20033;-38
2023/09/10 04:38:54;;;;;;;5.55;3.88;;;22.60;99.90;;;;;;5052197;28;20382;-40
2023/09/10 04:41:19;;;;;;;6.30;3.92;;;22.60;99.90;;;;;;5052128;28;20108;-44
2023/09/10 04:43:45;;;;;;;4.53;3.88;;;22.60;99.90;;;;;;5052232;28;20024;-38
2023/09/10 04:46:10;;;;;;;5.35;4.05;;;22.60;99.90;;;;;;5052153;28;20033;-36
2023/09/10 04:48:36;;;;;;;4.50;3.70;;;22.50;99.90;;;;;;5052143;28;20052;-39
2023/09/10 04:51:02;;;;;;;4.63;3.80;;;22.60;99.90;;;;;;5051896;28;20025;-42
2023/09/10 04:53:27;;;;;;;8.02;4.10;;;22.50;99.90;;;;;;5052021;28;20821;-36
2023/09/10 04:55:54;;;;;;;7.47;4.68;;;22.50;99.90;;;;;;5051906;28;20029;-37
2023/09/10 04:58:19;;;;;;;4.82;3.55;;;22.50;99.90;;;;;;5052031;28;20383;-39
2023/09/10 05:00:45;;;;;;;5.38;3.85;;;22.50;99.90;;;;;;5051751;28;20031;-37
2023/09/10 05:03:11;;;;;;;4.85;3.75;;;22.50;99.90;;;;;;5052121;28;20040;-38
2023/09/10 05:05:36;;;;;;;7.03;4.32;;;22.50;99.90;;;;;;5051757;28;20025;-38
2023/09/10 05:08:02;;;;;;;4.22;3.72;;;22.50;99.90;;;;;;5051753;28;20021;-39
2023/09/10 05:10:29;;;;;;;4.15;3.58;;;22.50;99.90;;;;;;5051513;28;20116;-37
2023/09/10 05:12:55;;;;;;;5.13;3.88;;;22.50;99.90;;;;;;5051732;28;20033;-39
2023/09/10 05:15:22;;;;;;;9.10;4.43;;;22.50;99.90;;;;;;5051591;28;20029;-38
2023/09/10 05:17:47;;;;;;;5.45;4.00;;;22.50;99.90;;;;;;5050270;28;20108;-38
2023/09/10 05:20:13;;;;;;;5.32;3.63;;;22.50;99.90;;;;;;5051396;28;20116;-39
2023/09/10 05:22:39;;;;;;;4.78;4.05;;;22.50;99.90;;;;;;5051519;28;20064;-41
2023/09/10 05:25:05;;;;;;;4.97;4.03;;;22.50;99.90;;;;;;5051390;28;20090;-37
2023/09/10 05:27:32;;;;;;;6.72;4.03;;;22.50;99.90;;;;;;5051657;28;20117;-39
2023/09/10 05:29:58;;;;;;;5.10;4.07;;;22.50;99.90;;;;;;5051299;28;20295;-39
2023/09/10 05:32:23;;;;;;;5.40;3.88;;;22.50;99.90;;;;;;5051486;28;20460;-36
2023/09/10 05:34:49;;;;;;;6.70;4.28;;;22.50;99.90;;;;;;5051411;28;20388;-36
2023/09/10 05:37:14;;;;;;;4.95;3.97;;;22.50;99.90;;;;;;5050555;28;20029;-38
2023/09/10 05:39:40;;;;;;;6.10;3.63;;;22.50;99.90;;;;;;5051152;28;20033;-38
2023/09/10 05:42:06;;;;;;;6.72;3.90;;;22.50;99.90;;;;;;5051496;28;20029;-40
2023/09/10 05:44:31;;;;;;;5.55;4.00;;;22.50;99.90;;;;;;5051206;28;20017;-39
2023/09/10 05:46:58;;;;;;;6.60;4.18;;;22.50;99.90;;;;;;5051239;28;20059;-37
2023/09/10 05:49:24;;;;;;;5.18;3.88;;;22.50;99.90;;;;;;5051023;28;20385;-37
2023/09/10 05:51:49;;;;;;;6.05;4.15;;;22.40;99.90;;;;;;5051158;28;20116;-42
2023/09/10 05:54:15;;;;;;;6.03;3.78;;;22.50;99.90;;;;;;5051167;28;20029;-38
2023/09/10 05:56:40;;;;;;;4.93;4.13;;;22.50;99.90;;;;;;5051157;28;20505;-39
2023/09/10 05:59:06;;;;;;;4.72;3.88;;;22.50;99.90;;;;;;5050959;28;20562;-37
2023/09/10 06:01:32;;;;;;;6.82;4.32;;;22.50;99.90;;;;;;5051298;28;20052;-37
2023/09/10 06:03:59;;;;;;;6.60;3.75;;;22.50;99.90;;;;;;5050980;28;20521;-38
2023/09/10 06:06:25;;;;;;;6.53;4.10;;;22.40;99.90;;;;;;5051488;28;20021;-37
2023/09/10 06:08:50;;;;;;;4.13;3.40;;;22.40;99.90;;;;;;5050932;28;20070;-38
2023/09/10 06:11:16;;;;;;;7.32;3.70;;;22.50;99.90;;;;;;5050998;28;20021;-36
2023/09/10 06:13:41;;;;;;;4.40;3.80;;;22.50;99.90;;;;;;5051081;28;20467;-38
2023/09/10 06:16:07;;;;;;;6.47;3.90;;;22.50;99.90;;;;;;5050956;28;20021;-38
2023/09/10 06:18:32;;;;;;;8.05;4.00;;;22.40;99.90;;;;;;5050942;28;20323;-38
2023/09/10 06:20:58;;;;;;;5.15;3.90;;;22.50;99.90;;;;;;5050783;28;20091;-40
2023/09/10 06:23:24;;;;;;;5.22;3.90;;;22.50;99.90;;;;;;5050736;28;20490;-40
2023/09/10 06:25:50;;;;;;;5.32;3.92;;;22.50;99.90;;;;;;5050814;28;20025;-38
2023/09/10 06:28:16;;;;;;;5.75;4.00;;;22.50;99.90;;;;;;5051166;28;20033;-39
2023/09/10 06:30:41;;;;;;;4.38;3.58;;;22.50;99.90;;;;;;5050675;28;20040;-39
2023/09/10 06:33:08;;;;;;;5.38;3.80;;;22.50;99.90;;;;;;5051220;28;20029;-38
2023/09/10 06:35:34;;;;;;;3.92;3.30;;;22.50;99.90;;;;;;5049492;28;20025;-39
2023/09/10 06:37:59;;;;;;;4.72;3.70;;;22.50;99.90;;;;;;5050714;28;20508;-38
2023/09/10 06:40:25;;;;;;;5.95;3.92;;;22.50;99.90;;;;;;5050688;28;20086;-40
2023/09/10 06:42:51;;;;;;;4.38;3.47;;;22.50;99.90;;;;;;5050780;28;20029;-39
2023/09/10 06:45:16;;;;;;;4.55;3.50;;;22.50;99.90;;;;;;5050995;28;20021;-37
2023/09/10 06:47:42;;;;;;;5.18;3.90;;;22.50;99.90;;;;;;5052329;28;20346;-37
2023/09/10 06:50:08;;;;;;;4.18;3.70;;;22.50;99.90;;;;;;5054239;28;20021;-37
2023/09/10 06:52:33;;;;;;;5.75;3.80;;;22.50;99.90;;;;;;5054400;28;20454;-40
2023/09/10 06:55:00;;;;;;;3.80;3.40;;;22.50;99.90;;;;;;5054287;28;20021;-43
2023/09/10 06:57:25;;;;;;;4.18;3.47;;;22.50;99.90;;;;;;5054349;28;20075;-39
2023/09/10 06:59:51;;;;;;;4.18;3.50;;;22.50;99.90;;;;;;5054097;28;20025;-40
2023/09/10 07:02:16;;;;;;;4.25;3.67;;;22.50;99.90;;;;;;5054094;28;20028;-39
2023/09/10 07:04:47;;;;;;;6.22;3.95;;;22.50;99.90;;;;;;5054087;28;20025;-38
2023/09/10 07:07:14;;;;;;;4.15;3.75;;;22.50;99.90;;;;;;5054120;28;20021;-42
2023/09/10 07:09:39;;;;;;;3.88;3.38;;;22.50;99.90;;;;;;5053884;28;20100;-40
2023/09/10 07:12:06;;;;;;;6.63;4.00;;;22.50;99.90;;;;;;5054034;28;20178;-37
2023/09/10 07:14:32;;;;;;;6.13;3.47;;;22.50;99.90;;;;;;5053923;28;20025;-39
2023/09/10 07:16:58;;;;;;;3.80;3.35;;;22.50;99.90;;;;;;5053897;28;20379;-39
2023/09/10 07:19:24;;;;;;;5.15;3.92;;;22.50;99.90;;;;;;5053886;28;20394;-37
2023/09/10 07:21:49;;;;;;;4.22;3.45;;;22.50;99.90;;;;;;5053862;28;20029;-37
2023/09/10 07:24:15;;;;;;;4.55;3.22;;;22.60;99.90;;;;;;5053724;28;20542;-38
2023/09/10 07:26:40;;;;;;;4.72;3.95;;;22.60;99.90;;;;;;5053827;28;20024;-41
2023/09/10 07:29:07;;;;;;;3.63;3.30;;;22.60;99.90;;;;;;5053589;28;20021;-37
2023/09/10 07:31:33;;;;;;;3.83;3.40;;;22.60;99.90;;;;;;5053613;28;20100;-39
2023/09/10 07:34:00;;;;;;;4.72;3.45;;;22.60;99.90;;;;;;5053440;28;20083;-37
2023/09/10 07:36:25;;;;;;;7.07;3.38;;;22.60;99.90;;;;;;5053682;28;20028;-37
2023/09/10 07:38:52;;;;;;;3.47;3.17;;;22.70;99.90;;;;;;5053392;28;20436;-38
2023/09/10 07:41:18;;;;;;;3.92;3.33;;;22.60;99.90;;;;;;5052704;28;20410;-37
2023/09/10 07:43:43;;;;;;;3.80;3.28;;;22.60;99.90;;;;;;5053784;28;20021;-42
2023/09/10 07:46:09;;;;;;;4.00;3.28;;;22.60;99.90;;;;;;5053282;28;20017;-42
2023/09/10 07:48:35;;;;;;;4.07;3.58;;;22.70;99.90;;;;;;5053271;28;20021;-44
2023/09/10 07:51:01;;;;;;;3.80;3.05;;;22.60;99.90;;;;;;5053408;28;20033;-43
2023/09/10 07:53:26;;;;;;;4.43;3.30;;;22.60;99.90;;;;;;5053509;28;20429;-45
2023/09/10 07:55:52;;;;;;;4.35;3.38;;;22.70;99.90;;;;;;5053228;28;20029;-42
2023/09/10 07:58:18;;;;;;;3.90;3.50;;;22.70;99.90;;;;;;5052879;28;20435;-41
2023/09/10 08:00:44;;;;;;;4.25;3.35;;;22.70;99.90;;;;;;5052476;28;20032;-42
2023/09/10 08:03:11;;;;;;;3.20;2.85;;;22.70;99.90;;;;;;5052888;28;20037;-42
2023/09/10 08:05:37;;;;;;;3.75;3.30;;;22.70;99.90;;;;;;5053113;28;20013;-42
2023/09/10 08:08:03;;;;;;;4.20;3.50;;;22.70;99.90;;;;;;5053232;28;20024;-42
2023/09/10 08:10:33;;;;;;;4.82;3.40;;;22.70;99.90;;;;;;5052805;28;20032;-42
2023/09/10 08:13:00;;;;;;;4.05;3.45;;;22.70;99.90;;;;;;5052898;28;20028;-42
2023/09/10 08:15:26;;;;;;;4.13;3.30;;;22.70;99.90;;;;;;5052772;28;20486;-42
2023/09/10 08:17:55;;;;;;;4.40;3.40;;;22.70;99.90;;;;;;5052590;28;20112;-43
2023/09/10 08:20:21;;;;;;;3.80;3.40;;;22.70;99.90;;;;;;5052598;28;20040;-41
2023/09/10 08:22:46;;;;;;;4.05;2.85;;;22.70;99.90;;;;;;5052603;28;20029;-42
2023/09/10 08:25:13;;;;;;;3.60;3.10;;;22.80;99.90;;;;;;5052639;28;20021;-44
2023/09/10 08:27:39;;;;;;;3.35;2.88;;;22.80;99.90;;;;;;5052589;28;20505;-42
2023/09/10 08:30:06;;;;;;;5.07;3.40;;;22.80;99.90;;;;;;5052341;28;20025;-41
2023/09/10 08:32:33;;;;;;;3.25;2.95;;;22.80;99.90;;;;;;5052369;28;20402;-43
2023/09/10 08:34:59;;;;;;;3.22;2.92;;;22.80;99.90;;;;;;5052404;28;20067;-46
2023/09/10 08:37:25;;;;;;;3.60;3.30;;;22.80;99.90;;;;;;5052490;28;20021;-45
2023/09/10 08:39:51;;;;;;;3.67;3.20;;;22.80;99.90;;;;;;5052841;28;20036;-42
2023/09/10 08:42:26;;;;;;;3.83;3.35;;;22.80;99.90;;;;;;5053371;28;20628;-43
2023/09/10 08:45:00;;;;;;;4.55;3.50;;;22.80;99.90;;;;;;5052263;28;20017;-42
2023/09/10 08:47:34;;;;;;;4.25;3.20;;;22.80;99.90;;;;;;5053049;28;20036;-41
2023/09/10 08:50:10;;;;;;;3.17;2.85;;;22.80;99.90;;;;;;5052423;28;20485;-40
2023/09/10 08:52:44;;;;;;;3.28;2.97;;;22.80;99.90;;;;;;5052180;28;20399;-46
2023/09/10 08:55:13;;;;;;;;;;;22.80;99.90;;;;;;5052468;28;20036;-39
2023/09/10 08:57:41;;;;;;;3.45;3.15;;;22.90;99.90;;;;;;5052011;28;19909;-40
2023/09/10 09:00:14;;;;;;;7.43;3.20;;;22.80;99.90;;;;;;5051849;28;20028;-41
2023/09/10 09:02:44;;;;;;;3.33;3.03;;;22.90;99.90;;;;;;5052000;28;20044;-41
2023/09/10 09:05:10;;;;;;;3.40;3.10;;;22.90;99.90;;;;;;5051870;28;20020;-38
2023/09/10 09:08:14;;;;;;;3.63;2.80;;;22.90;99.90;;;;;;5051899;28;20082;-38
2023/09/10 09:10:40;;;;;;;3.40;3.10;;;22.90;99.90;;;;;;5047799;28;20421;-39
2023/09/10 09:13:09;;;;;;;4.25;3.38;;;22.90;99.90;;;;;;5051724;28;20021;-39
2023/09/10 09:15:38;;;;;;;3.42;3.10;;;22.90;99.90;;;;;;5051684;28;20025;-38
2023/09/10 09:18:12;;;;;;;3.45;3.15;;;22.90;99.90;;;;;;5051594;28;20402;-40
2023/09/10 09:20:44;;;;;;;4.07;3.25;;;22.90;99.90;;;;;;5051530;28;20036;-39
2023/09/10 09:23:24;;;;;;;3.60;2.88;;;22.90;99.90;;;;;;5051559;28;20368;-39
2023/09/10 09:25:51;;;;;;;3.42;3.00;;;22.90;99.90;;;;;;5051942;28;20021;-39
2023/09/10 09:28:18;;;;;;;3.42;3.13;;;22.90;99.90;;;;;;5051540;28;20017;-39
2023/09/10 09:30:44;;;;;;;4.10;3.20;;;22.90;99.90;;;;;;5051632;28;20033;-40
2023/09/10 09:33:10;;;;;;;3.50;3.20;;;22.90;99.90;;;;;;5051443;28;20040;-39
2023/09/10 09:35:35;;;;;;;3.38;2.92;;;23.00;99.90;;;;;;5051385;28;20035;-39
2023/09/10 09:38:09;;;;;;;3.10;2.80;;;23.00;99.90;;;;;;5051431;28;20113;-39
2023/09/10 09:40:35;;;;;;;3.27;2.80;;;23.00;99.90;;;;;;5051150;28;20402;-40
2023/09/10 09:43:01;;;;;;;3.17;2.80;;;23.00;99.90;;;;;;5051209;28;20032;-38
2023/09/10 09:45:27;;;;;;;3.67;2.90;;;23.00;99.90;;;;;;5051105;28;20078;-39
2023/09/10 09:47:53;;;;;;;3.92;3.10;;;23.00;99.90;;;;;;5051807;28;20021;-39
2023/09/10 09:50:20;;;;;;;3.85;3.00;;;23.00;99.90;;;;;;5051054;28;20479;-39
2023/09/10 09:52:52;;;;;;;4.70;2.83;;;23.00;99.90;;;;;;5051211;28;20441;-39
2023/09/10 09:55:18;;;;;;;3.28;2.97;;;23.00;99.90;;;;;;5051218;28;20025;-37
2023/09/10 09:57:48;;;;;;;3.67;3.05;;;23.00;99.90;;;;;;5051136;28;20493;-38
2023/09/10 10:00:14;;;;;;;3.20;2.90;;;23.00;99.90;;;;;;5050877;28;20029;-39
2023/09/10 10:02:40;;;;;;;3.78;2.83;;;23.00;99.90;;;;;;5051091;28;20021;-38
2023/09/10 10:05:07;;;;;;;3.67;3.05;;;23.00;99.90;;;;;;5051039;28;20028;-40
2023/09/10 10:07:36;;;;;;;3.30;2.85;;;23.00;99.90;;;;;;5051096;28;20021;-39
2023/09/10 10:10:05;;;;;;;3.08;2.78;;;23.00;99.90;;;;;;5050871;28;20033;-41
2023/09/10 10:12:31;;;;;;;3.22;2.80;;;23.00;99.90;;;;;;5050975;28;20029;-43
2023/09/10 10:14:58;;;;;;;3.13;2.70;;;23.10;99.90;;;;;;5051197;28;20036;-40
2023/09/10 10:17:26;;;;;;;3.40;2.75;;;23.10;99.90;;;;;;5051048;28;20025;-38
2023/09/10 10:19:52;;;;;;;3.58;2.90;;;23.00;99.90;;;;;;5050722;28;20039;-42
2023/09/10 10:22:19;;;;;;;3.83;2.72;;;23.10;99.90;;;;;;5051991;28;20375;-39
2023/09/10 10:24:45;;;;;;;3.38;2.80;;;23.00;99.90;;;;;;5054824;28;20083;-39
2023/09/10 10:27:13;;;;;;;3.75;2.78;;;23.10;99.90;;;;;;5054816;28;20433;-39
2023/09/10 10:29:39;;;;;;;4.28;2.70;;;23.10;99.90;;;;;;5054814;28;20029;-39
2023/09/10 10:32:16;;;;;;;3.10;2.50;;;23.10;99.90;;;;;;5054888;28;20087;-41
2023/09/10 10:34:49;;;;;;;3.92;2.88;;;23.10;99.90;;;;;;5054749;28;20032;-40
2023/09/10 10:37:32;;;;;;;2.97;2.67;;;23.10;99.90;;;;;;5054708;28;20466;-38
2023/09/10 10:40:08;;;;;;;2.55;2.35;;;23.10;99.90;;;;;;5054813;28;20457;-41
2023/09/10 10:42:47;;;;;;;3.85;2.47;;;23.10;99.90;;;;;;5054571;28;20061;-41
2023/09/10 10:45:15;;;;;;;3.10;2.80;;;23.10;99.90;;;;;;5054579;28;20116;-42
2023/09/10 10:47:43;;;;;;;3.85;2.85;;;23.10;99.90;;;;;;5054426;28;20013;-39
2023/09/10 10:50:10;;;;;;;3.05;2.63;;;23.20;99.90;;;;;;5054350;28;20517;-39
2023/09/10 10:52:43;;;;;;;4.53;2.72;;;23.20;99.90;;;;;;5054466;28;20051;-41
2023/09/10 10:55:09;;;;;;;5.05;3.20;;;23.20;99.90;;;;;;5054403;28;20108;-40
2023/09/10 10:57:36;;;;;;;5.40;3.22;;;23.20;99.90;;;;;;5054683;28;20033;-43
2023/09/10 11:00:05;;;;;;;3.05;2.75;;;23.20;99.90;;;;;;5054383;28;20431;-41
2023/09/10 11:02:30;;;;;;;7.60;2.72;;;23.20;99.90;;;;;;5054090;28;20394;-42
2023/09/10 11:05:04;;;;;;;3.08;2.78;;;23.20;99.90;;;;;;5054159;28;20027;-41
2023/09/10 11:07:31;;;;;;;4.00;3.05;;;23.20;99.90;;;;;;5054244;28;20070;-41
2023/09/10 11:10:19;;;;;;;3.92;2.80;;;23.20;99.90;;;;;;5053973;28;20098;-39
2023/09/10 11:13:07;;;;;;;4.25;2.75;;;23.20;99.90;;;;;;5053961;28;20514;-38
2023/09/10 11:15:32;;;;;;;3.15;2.70;;;23.20;99.90;;;;;;5053945;28;20025;-38
2023/09/10 11:18:38;;;;;;;3.28;2.55;;;23.20;99.90;;;;;;5053893;28;20033;-39
2023/09/10 11:21:15;;;;;;;3.70;3.00;;;23.30;99.90;;;;;;5053692;28;20047;-41
2023/09/10 11:24:15;;;;;;;3.20;2.78;;;23.20;99.90;;;;;;5053881;28;20025;-38
2023/09/10 11:26:41;;;;;;;3.97;3.00;;;23.20;99.90;;;;;;5053716;28;20028;-38
2023/09/10 11:29:07;;;;;;;3.28;2.92;;;23.30;99.90;;;;;;5053660;28;20028;-37
2023/09/10 11:31:33;;;;;;;4.38;3.28;;;23.30;99.90;;;;;;5053620;28;20021;-37
2023/09/10 11:34:17;;;;;;;3.30;2.90;;;23.30;99.90;;;;;;5052383;28;20032;-39
2023/09/10 11:36:44;;;;;;;3.25;2.95;;;23.30;99.90;;;;;;5053726;28;20454;-40
2023/09/10 11:39:11;;;;;;;3.50;2.60;;;23.30;99.90;;;;;;5053456;28;20036;-37
2023/09/10 11:41:37;;;;;;;3.33;2.78;;;23.30;99.90;;;;;;5053469;28;20089;-38
2023/09/10 11:44:02;;;;;;;2.97;2.67;;;23.30;99.90;;;;;;5053308;28;20021;-40
2023/09/10 11:46:28;;;;;;;3.33;2.67;;;23.30;99.90;;;;;;5053438;28;20104;-37
2023/09/10 11:48:54;;;;;;;3.47;2.63;;;23.30;99.90;;;;;;5053225;28;20025;-38
2023/09/10 11:51:19;;;;;;;3.17;2.75;;;23.30;99.90;;;;;;5053324;28;20475;-39
2023/09/10 11:53:45;;;;;;;3.58;3.08;;;23.30;99.90;;;;;;5053314;28;20100;-37
2023/09/10 11:56:11;;;;;;;3.22;2.65;;;23.30;99.90;;;;;;5053148;28;20025;-37
2023/09/10 11:58:38;;;;;;;3.33;2.55;;;23.30;99.90;;;;;;5053054;28;20452;-38
2023/09/10 12:01:04;;;;;;;3.53;2.72;;;23.30;99.90;;;;;;5053059;28;20113;-38
2023/09/10 12:03:32;;;;;;;3.22;2.90;;;23.30;99.90;;;;;;5053022;28;20478;-40
2023/09/10 12:05:59;;;;;;;2.75;2.55;;;23.30;99.90;;;;;;5053082;28;20078;-39
2023/09/10 12:08:25;;;;;;;3.22;2.47;;;23.20;99.90;;;;;;5053130;28;20072;-38
2023/09/10 12:10:58;;;;;;;4.85;3.20;;;23.20;99.90;;;;;;5053573;28;20075;-37
2023/09/10 12:13:25;;;;;;;4.03;2.92;;;23.30;99.90;;;;;;5053861;28;20044;-37
2023/09/10 12:15:55;;;;;;;2.95;2.63;;;23.30;99.90;;;;;;5051861;28;20108;-37
2023/09/10 12:18:23;;;;;;;3.70;2.90;;;23.30;99.90;;;;;;5035692;28;20153;-38
2023/09/10 12:20:51;;;;;;;3.22;2.92;;;23.30;99.90;;;;;;5053240;28;20037;-38
2023/09/10 12:23:16;;;;;;;3.05;2.75;;;23.30;99.90;;;;;;5053313;28;20474;-39
2023/09/10 12:25:43;;;;;;;2.72;2.45;;;23.30;99.90;;;;;;5053323;28;20089;-40
2023/09/10 12:28:08;;;;;;;3.17;2.88;;;23.30;99.90;;;;;;5053508;28;20068;-37
2023/09/10 12:30:36;;;;;;;3.50;2.70;;;23.30;99.90;;;;;;5052957;28;20052;-38
2023/09/10 12:33:02;;;;;;;4.85;2.83;;;23.30;99.90;;;;;;5053222;28;20025;-38
2023/09/10 12:35:29;;;;;;;5.03;3.10;;;23.30;99.90;;;;;;5052411;28;20025;-39
2023/09/10 12:37:55;;;;;;;3.40;2.90;;;23.30;99.90;;;;;;5052507;28;20509;-42
2023/09/10 12:40:21;;;;;;;4.70;3.00;;;23.30;99.90;;;;;;5052558;28;20065;-38
2023/09/10 12:42:50;;;;;;;3.47;2.85;;;23.30;99.90;;;;;;5052310;28;20025;-43
2023/09/10 12:45:17;;;;;;;3.05;2.70;;;23.30;99.90;;;;;;5051959;28;20374;-38
2023/09/10 12:47:43;;;;;;;3.33;2.85;;;23.30;99.90;;;;;;5052355;28;20453;-38
2023/09/10 12:50:10;;;;;;;3.38;2.78;;;23.30;99.90;;;;;;5052093;28;20031;-38